Aviation Digital Data Service (ADDS)

Output produced by METARs form (0433 UTC 01 April 2015)
found at http://aviationweather.gov/adds/metars/
 
KBUF 010302Z 0103/0124 34006KT P6SM FEW035 SCT150 
     FM010500 VRB03KT P6SM BKN050 
     FM011200 26004KT P6SM BKN080 
     FM011600 29004KT P6SM SCT150